sensor_id;sensor_type;location;lat;lon;timestamp;P1;durP1;ratioP1;P2;durP2;ratioP2
57297;SDS011;43147;50.972;18.210;2023-02-03T00:01:20;6.70;;;2.90;;
57297;SDS011;43147;50.972;18.210;2023-02-03T00:03:47;6.70;;;3.40;;
57297;SDS011;43147;50.972;18.210;2023-02-03T00:06:13;7.00;;;3.90;;
57297;SDS011;43147;50.972;18.210;2023-02-03T00:08:38;8.10;;;3.50;;
57297;SDS011;43147;50.972;18.210;2023-02-03T00:11:04;6.90;;;2.80;;
57297;SDS011;43147;50.972;18.210;2023-02-03T00:13:30;5.20;;;3.20;;
57297;SDS011;43147;50.972;18.210;2023-02-03T00:15:58;8.40;;;3.00;;
57297;SDS011;43147;50.972;18.210;2023-02-03T00:18:26;6.30;;;3.00;;
57297;SDS011;43147;50.972;18.210;2023-02-03T00:20:52;11.30;;;3.60;;
57297;SDS011;43147;50.972;18.210;2023-02-03T00:23:18;7.30;;;3.70;;
57297;SDS011;43147;50.972;18.210;2023-02-03T00:25:44;4.20;;;2.50;;
57297;SDS011;43147;50.972;18.210;2023-02-03T00:28:09;9.60;;;5.90;;
57297;SDS011;43147;50.972;18.210;2023-02-03T00:30:35;5.40;;;3.60;;
57297;SDS011;43147;50.972;18.210;2023-02-03T00:33:01;10.50;;;5.10;;
57297;SDS011;43147;50.972;18.210;2023-02-03T00:35:28;9.20;;;3.60;;
57297;SDS011;43147;50.972;18.210;2023-02-03T00:37:54;7.20;;;3.60;;
57297;SDS011;43147;50.972;18.210;2023-02-03T00:40:21;6.70;;;3.60;;
57297;SDS011;43147;50.972;18.210;2023-02-03T00:42:48;7.30;;;3.90;;
57297;SDS011;43147;50.972;18.210;2023-02-03T00:45:13;5.70;;;3.00;;
57297;SDS011;43147;50.972;18.210;2023-02-03T00:47:39;6.70;;;2.50;;
57297;SDS011;43147;50.972;18.210;2023-02-03T00:50:06;4.40;;;2.80;;
57297;SDS011;43147;50.972;18.210;2023-02-03T00:52:34;6.60;;;3.00;;
57297;SDS011;43147;50.972;18.210;2023-02-03T00:55:00;6.70;;;3.00;;
57297;SDS011;43147;50.972;18.210;2023-02-03T00:57:26;6.20;;;2.80;;
57297;SDS011;43147;50.972;18.210;2023-02-03T00:59:51;8.50;;;3.80;;
57297;SDS011;43147;50.972;18.210;2023-02-03T01:02:19;13.70;;;3.10;;
57297;SDS011;43147;50.972;18.210;2023-02-03T01:04:44;9.20;;;4.10;;
57297;SDS011;43147;50.972;18.210;2023-02-03T01:07:10;7.30;;;3.80;;
57297;SDS011;43147;50.972;18.210;2023-02-03T01:09:35;6.40;;;3.80;;
57297;SDS011;43147;50.972;18.210;2023-02-03T01:12:02;7.20;;;3.50;;
57297;SDS011;43147;50.972;18.210;2023-02-03T01:14:28;7.30;;;3.30;;
57297;SDS011;43147;50.972;18.210;2023-02-03T01:16:54;9.30;;;4.60;;
57297;SDS011;43147;50.972;18.210;2023-02-03T01:19:20;15.10;;;5.90;;
57297;SDS011;43147;50.972;18.210;2023-02-03T01:21:48;17.00;;;5.60;;
57297;SDS011;43147;50.972;18.210;2023-02-03T01:24:13;10.50;;;5.90;;
57297;SDS011;43147;50.972;18.210;2023-02-03T01:26:39;18.40;;;7.60;;
57297;SDS011;43147;50.972;18.210;2023-02-03T01:29:12;13.10;;;6.40;;
57297;SDS011;43147;50.972;18.210;2023-02-03T01:32:01;10.60;;;5.70;;
57297;SDS011;43147;50.972;18.210;2023-02-03T01:34:27;18.80;;;7.40;;
57297;SDS011;43147;50.972;18.210;2023-02-03T01:36:52;12.50;;;5.50;;
57297;SDS011;43147;50.972;18.210;2023-02-03T01:39:18;19.70;;;7.90;;
57297;SDS011;43147;50.972;18.210;2023-02-03T01:41:44;18.50;;;7.50;;
57297;SDS011;43147;50.972;18.210;2023-02-03T01:47:05;11.90;;;6.30;;
57297;SDS011;43147;50.972;18.210;2023-02-03T01:49:38;30.20;;;8.40;;
57297;SDS011;43147;50.972;18.210;2023-02-03T01:52:05;70.20;;;20.90;;
57297;SDS011;43147;50.972;18.210;2023-02-03T01:54:31;74.40;;;21.70;;
57297;SDS011;43147;50.972;18.210;2023-02-03T01:57:00;52.00;;;19.50;;
57297;SDS011;43147;50.972;18.210;2023-02-03T01:59:28;29.00;;;12.60;;
57297;SDS011;43147;50.972;18.210;2023-02-03T02:01:55;26.30;;;10.30;;
57297;SDS011;43147;50.972;18.210;2023-02-03T02:04:22;13.20;;;9.10;;
57297;SDS011;43147;50.972;18.210;2023-02-03T02:07:06;9.80;;;5.50;;
57297;SDS011;43147;50.972;18.210;2023-02-03T02:09:32;9.20;;;4.70;;
57297;SDS011;43147;50.972;18.210;2023-02-03T02:11:58;6.60;;;4.50;;
57297;SDS011;43147;50.972;18.210;2023-02-03T02:14:24;14.10;;;4.50;;
57297;SDS011;43147;50.972;18.210;2023-02-03T02:17:04;12.30;;;5.70;;
57297;SDS011;43147;50.972;18.210;2023-02-03T02:28:15;182.90;;;40.60;;
57297;SDS011;43147;50.972;18.210;2023-02-03T02:33:42;23.80;;;10.10;;
57297;SDS011;43147;50.972;18.210;2023-02-03T02:44:38;85.20;;;23.00;;
57297;SDS011;43147;50.972;18.210;2023-02-03T02:47:09;52.90;;;16.90;;
57297;SDS011;43147;50.972;18.210;2023-02-03T02:49:47;30.40;;;9.90;;
57297;SDS011;43147;50.972;18.210;2023-02-03T02:52:37;22.80;;;8.40;;
57297;SDS011;43147;50.972;18.210;2023-02-03T02:55:16;12.80;;;6.60;;
57297;SDS011;43147;50.972;18.210;2023-02-03T02:57:49;14.40;;;6.10;;
57297;SDS011;43147;50.972;18.210;2023-02-03T03:00:16;16.30;;;7.00;;
57297;SDS011;43147;50.972;18.210;2023-02-03T03:02:42;61.50;;;20.20;;
57297;SDS011;43147;50.972;18.210;2023-02-03T03:05:08;97.80;;;29.20;;
57297;SDS011;43147;50.972;18.210;2023-02-03T03:07:37;115.20;;;30.70;;
57297;SDS011;43147;50.972;18.210;2023-02-03T03:10:08;113.00;;;33.10;;
57297;SDS011;43147;50.972;18.210;2023-02-03T03:12:36;90.20;;;30.00;;
57297;SDS011;43147;50.972;18.210;2023-02-03T03:15:17;68.00;;;26.80;;
57297;SDS011;43147;50.972;18.210;2023-02-03T03:17:48;25.70;;;13.80;;
57297;SDS011;43147;50.972;18.210;2023-02-03T03:20:23;31.00;;;11.80;;
57297;SDS011;43147;50.972;18.210;2023-02-03T03:22:51;16.20;;;8.90;;
57297;SDS011;43147;50.972;18.210;2023-02-03T03:25:31;28.30;;;10.60;;
57297;SDS011;43147;50.972;18.210;2023-02-03T03:28:01;23.30;;;9.10;;
57297;SDS011;43147;50.972;18.210;2023-02-03T03:30:31;32.00;;;12.60;;
57297;SDS011;43147;50.972;18.210;2023-02-03T03:32:59;51.70;;;20.30;;
57297;SDS011;43147;50.972;18.210;2023-02-03T03:35:27;33.40;;;14.00;;
57297;SDS011;43147;50.972;18.210;2023-02-03T03:38:04;36.40;;;10.90;;
57297;SDS011;43147;50.972;18.210;2023-02-03T03:40:36;17.30;;;9.80;;
57297;SDS011;43147;50.972;18.210;2023-02-03T03:43:12;33.90;;;11.60;;
57297;SDS011;43147;50.972;18.210;2023-02-03T03:45:45;33.40;;;11.90;;
57297;SDS011;43147;50.972;18.210;2023-02-03T03:48:56;30.50;;;11.70;;
57297;SDS011;43147;50.972;18.210;2023-02-03T03:51:09;32.90;;;10.90;;
57297;SDS011;43147;50.972;18.210;2023-02-03T03:53:38;24.10;;;9.50;;
57297;SDS011;43147;50.972;18.210;2023-02-03T03:56:05;37.70;;;12.10;;
57297;SDS011;43147;50.972;18.210;2023-02-03T03:58:32;37.90;;;11.50;;
57297;SDS011;43147;50.972;18.210;2023-02-03T04:00:59;32.30;;;12.90;;
57297;SDS011;43147;50.972;18.210;2023-02-03T04:03:40;34.50;;;11.80;;
57297;SDS011;43147;50.972;18.210;2023-02-03T04:06:27;33.80;;;12.00;;
57297;SDS011;43147;50.972;18.210;2023-02-03T04:08:53;26.20;;;11.00;;
57297;SDS011;43147;50.972;18.210;2023-02-03T04:11:18;33.00;;;10.70;;
57297;SDS011;43147;50.972;18.210;2023-02-03T04:14:03;25.60;;;10.90;;
57297;SDS011;43147;50.972;18.210;2023-02-03T04:16:28;35.20;;;12.20;;
57297;SDS011;43147;50.972;18.210;2023-02-03T04:18:54;25.90;;;10.80;;
57297;SDS011;43147;50.972;18.210;2023-02-03T04:21:20;30.10;;;12.60;;
57297;SDS011;43147;50.972;18.210;2023-02-03T04:23:45;24.90;;;11.10;;
57297;SDS011;43147;50.972;18.210;2023-02-03T04:26:11;23.50;;;11.60;;
57297;SDS011;43147;50.972;18.210;2023-02-03T04:28:37;30.30;;;13.30;;
57297;SDS011;43147;50.972;18.210;2023-02-03T04:31:03;27.60;;;11.50;;
57297;SDS011;43147;50.972;18.210;2023-02-03T04:33:29;32.50;;;11.20;;
57297;SDS011;43147;50.972;18.210;2023-02-03T04:35:54;38.40;;;11.80;;
57297;SDS011;43147;50.972;18.210;2023-02-03T04:38:20;27.20;;;12.40;;
57297;SDS011;43147;50.972;18.210;2023-02-03T04:40:45;36.80;;;12.40;;
57297;SDS011;43147;50.972;18.210;2023-02-03T04:43:11;27.20;;;12.80;;
57297;SDS011;43147;50.972;18.210;2023-02-03T04:45:38;27.60;;;10.60;;
57297;SDS011;43147;50.972;18.210;2023-02-03T04:48:04;31.70;;;11.40;;
57297;SDS011;43147;50.972;18.210;2023-02-03T04:50:30;31.30;;;12.60;;
57297;SDS011;43147;50.972;18.210;2023-02-03T04:52:56;28.00;;;12.80;;
57297;SDS011;43147;50.972;18.210;2023-02-03T04:55:26;29.80;;;12.00;;
57297;SDS011;43147;50.972;18.210;2023-02-03T04:57:55;33.30;;;12.00;;
57297;SDS011;43147;50.972;18.210;2023-02-03T05:00:25;31.60;;;12.60;;
57297;SDS011;43147;50.972;18.210;2023-02-03T05:02:51;26.50;;;11.10;;
57297;SDS011;43147;50.972;18.210;2023-02-03T05:05:17;23.10;;;12.60;;
57297;SDS011;43147;50.972;18.210;2023-02-03T05:07:43;28.70;;;11.70;;
57297;SDS011;43147;50.972;18.210;2023-02-03T05:10:09;36.10;;;13.80;;
57297;SDS011;43147;50.972;18.210;2023-02-03T05:12:35;29.00;;;12.50;;
57297;SDS011;43147;50.972;18.210;2023-02-03T05:15:03;34.90;;;12.40;;
57297;SDS011;43147;50.972;18.210;2023-02-03T05:17:29;27.90;;;10.30;;
57297;SDS011;43147;50.972;18.210;2023-02-03T05:19:55;29.80;;;11.70;;
57297;SDS011;43147;50.972;18.210;2023-02-03T05:22:20;31.40;;;12.10;;
57297;SDS011;43147;50.972;18.210;2023-02-03T05:24:46;25.60;;;11.70;;
57297;SDS011;43147;50.972;18.210;2023-02-03T05:27:11;26.30;;;11.30;;
57297;SDS011;43147;50.972;18.210;2023-02-03T05:29:37;30.90;;;11.30;;
57297;SDS011;43147;50.972;18.210;2023-02-03T05:32:03;22.60;;;9.10;;
57297;SDS011;43147;50.972;18.210;2023-02-03T05:34:29;24.60;;;9.70;;
57297;SDS011;43147;50.972;18.210;2023-02-03T05:36:54;23.90;;;10.50;;
57297;SDS011;43147;50.972;18.210;2023-02-03T05:39:20;23.70;;;9.80;;
57297;SDS011;43147;50.972;18.210;2023-02-03T05:41:45;16.70;;;9.00;;
57297;SDS011;43147;50.972;18.210;2023-02-03T05:44:17;26.00;;;9.90;;
57297;SDS011;43147;50.972;18.210;2023-02-03T05:46:43;23.00;;;9.00;;
57297;SDS011;43147;50.972;18.210;2023-02-03T05:49:09;33.20;;;11.20;;
57297;SDS011;43147;50.972;18.210;2023-02-03T05:51:35;23.80;;;9.70;;
57297;SDS011;43147;50.972;18.210;2023-02-03T05:54:01;38.80;;;11.10;;
57297;SDS011;43147;50.972;18.210;2023-02-03T05:56:26;21.00;;;9.50;;
57297;SDS011;43147;50.972;18.210;2023-02-03T05:58:52;26.50;;;9.30;;
57297;SDS011;43147;50.972;18.210;2023-02-03T06:01:17;23.70;;;10.10;;
57297;SDS011;43147;50.972;18.210;2023-02-03T06:03:44;12.60;;;7.60;;
57297;SDS011;43147;50.972;18.210;2023-02-03T06:06:10;13.10;;;6.80;;
57297;SDS011;43147;50.972;18.210;2023-02-03T06:08:35;22.20;;;6.50;;
57297;SDS011;43147;50.972;18.210;2023-02-03T06:11:01;11.40;;;6.90;;
57297;SDS011;43147;50.972;18.210;2023-02-03T06:13:27;20.20;;;7.80;;
57297;SDS011;43147;50.972;18.210;2023-02-03T06:15:52;16.10;;;7.50;;
57297;SDS011;43147;50.972;18.210;2023-02-03T06:18:18;17.30;;;7.30;;
57297;SDS011;43147;50.972;18.210;2023-02-03T06:20:44;14.20;;;8.10;;
57297;SDS011;43147;50.972;18.210;2023-02-03T06:23:10;17.80;;;7.60;;
57297;SDS011;43147;50.972;18.210;2023-02-03T06:25:35;13.30;;;5.70;;
57297;SDS011;43147;50.972;18.210;2023-02-03T06:28:01;12.90;;;6.40;;
57297;SDS011;43147;50.972;18.210;2023-02-03T06:30:26;10.30;;;6.50;;
57297;SDS011;43147;50.972;18.210;2023-02-03T06:32:52;12.40;;;6.60;;
57297;SDS011;43147;50.972;18.210;2023-02-03T06:35:18;18.10;;;7.20;;
57297;SDS011;43147;50.972;18.210;2023-02-03T06:37:43;18.80;;;6.80;;
57297;SDS011;43147;50.972;18.210;2023-02-03T06:40:09;11.00;;;6.50;;
57297;SDS011;43147;50.972;18.210;2023-02-03T06:42:36;15.70;;;6.40;;
57297;SDS011;43147;50.972;18.210;2023-02-03T06:45:01;19.10;;;7.60;;
57297;SDS011;43147;50.972;18.210;2023-02-03T06:47:27;10.70;;;6.10;;
57297;SDS011;43147;50.972;18.210;2023-02-03T06:49:53;14.60;;;5.90;;
57297;SDS011;43147;50.972;18.210;2023-02-03T06:52:21;15.50;;;7.10;;
57297;SDS011;43147;50.972;18.210;2023-02-03T06:54:46;12.10;;;6.70;;
57297;SDS011;43147;50.972;18.210;2023-02-03T06:57:12;14.70;;;7.40;;
57297;SDS011;43147;50.972;18.210;2023-02-03T06:59:38;13.10;;;6.80;;
57297;SDS011;43147;50.972;18.210;2023-02-03T07:02:03;11.80;;;6.90;;
57297;SDS011;43147;50.972;18.210;2023-02-03T07:04:29;17.20;;;8.10;;
57297;SDS011;43147;50.972;18.210;2023-02-03T07:06:55;13.40;;;6.10;;
57297;SDS011;43147;50.972;18.210;2023-02-03T07:09:21;12.00;;;6.60;;
57297;SDS011;43147;50.972;18.210;2023-02-03T07:11:47;10.30;;;6.20;;
57297;SDS011;43147;50.972;18.210;2023-02-03T07:14:13;8.80;;;4.70;;
57297;SDS011;43147;50.972;18.210;2023-02-03T07:16:38;11.90;;;5.20;;
57297;SDS011;43147;50.972;18.210;2023-02-03T07:19:05;13.20;;;6.00;;
57297;SDS011;43147;50.972;18.210;2023-02-03T07:21:31;13.80;;;4.70;;
57297;SDS011;43147;50.972;18.210;2023-02-03T07:23:57;12.10;;;5.80;;
57297;SDS011;43147;50.972;18.210;2023-02-03T07:26:23;11.40;;;4.90;;
57297;SDS011;43147;50.972;18.210;2023-02-03T07:28:50;15.30;;;5.80;;
57297;SDS011;43147;50.972;18.210;2023-02-03T07:31:16;8.60;;;4.80;;
57297;SDS011;43147;50.972;18.210;2023-02-03T07:33:42;19.90;;;4.90;;
57297;SDS011;43147;50.972;18.210;2023-02-03T07:36:10;14.60;;;3.30;;
57297;SDS011;43147;50.972;18.210;2023-02-03T07:38:36;4.50;;;3.60;;
57297;SDS011;43147;50.972;18.210;2023-02-03T07:41:02;6.30;;;3.20;;
57297;SDS011;43147;50.972;18.210;2023-02-03T07:43:29;17.50;;;3.80;;
57297;SDS011;43147;50.972;18.210;2023-02-03T07:45:54;8.20;;;4.70;;
57297;SDS011;43147;50.972;18.210;2023-02-03T07:48:20;12.10;;;5.80;;
57297;SDS011;43147;50.972;18.210;2023-02-03T07:50:48;11.50;;;5.20;;
57297;SDS011;43147;50.972;18.210;2023-02-03T07:53:15;10.80;;;6.00;;
57297;SDS011;43147;50.972;18.210;2023-02-03T07:55:41;11.50;;;5.80;;
57297;SDS011;43147;50.972;18.210;2023-02-03T07:58:07;12.10;;;6.70;;
57297;SDS011;43147;50.972;18.210;2023-02-03T08:00:33;13.10;;;6.60;;
57297;SDS011;43147;50.972;18.210;2023-02-03T08:02:58;15.40;;;6.70;;
57297;SDS011;43147;50.972;18.210;2023-02-03T08:05:24;10.80;;;6.30;;
57297;SDS011;43147;50.972;18.210;2023-02-03T08:07:50;19.40;;;7.70;;
57297;SDS011;43147;50.972;18.210;2023-02-03T08:10:15;16.70;;;7.80;;
57297;SDS011;43147;50.972;18.210;2023-02-03T08:12:42;14.40;;;6.50;;
57297;SDS011;43147;50.972;18.210;2023-02-03T08:15:09;20.70;;;9.10;;
57297;SDS011;43147;50.972;18.210;2023-02-03T08:17:35;20.80;;;8.60;;
57297;SDS011;43147;50.972;18.210;2023-02-03T08:20:04;18.80;;;8.80;;
57297;SDS011;43147;50.972;18.210;2023-02-03T08:22:31;14.40;;;6.70;;
57297;SDS011;43147;50.972;18.210;2023-02-03T08:24:56;11.60;;;6.60;;
57297;SDS011;43147;50.972;18.210;2023-02-03T08:27:22;14.50;;;6.30;;
57297;SDS011;43147;50.972;18.210;2023-02-03T08:29:48;10.00;;;5.70;;
57297;SDS011;43147;50.972;18.210;2023-02-03T08:32:15;14.80;;;7.10;;
57297;SDS011;43147;50.972;18.210;2023-02-03T08:34:42;12.70;;;6.00;;
57297;SDS011;43147;50.972;18.210;2023-02-03T08:37:09;12.80;;;6.90;;
57297;SDS011;43147;50.972;18.210;2023-02-03T08:39:35;16.60;;;7.80;;
57297;SDS011;43147;50.972;18.210;2023-02-03T08:42:00;12.60;;;7.40;;
57297;SDS011;43147;50.972;18.210;2023-02-03T08:44:28;16.20;;;7.20;;
57297;SDS011;43147;50.972;18.210;2023-02-03T08:46:55;28.20;;;8.50;;
57297;SDS011;43147;50.972;18.210;2023-02-03T08:49:20;15.80;;;8.40;;
57297;SDS011;43147;50.972;18.210;2023-02-03T08:51:46;19.80;;;9.50;;
57297;SDS011;43147;50.972;18.210;2023-02-03T08:54:12;14.10;;;8.80;;
57297;SDS011;43147;50.972;18.210;2023-02-03T08:56:39;11.90;;;7.20;;
57297;SDS011;43147;50.972;18.210;2023-02-03T08:59:05;16.80;;;8.30;;
57297;SDS011;43147;50.972;18.210;2023-02-03T09:01:31;20.40;;;9.30;;
57297;SDS011;43147;50.972;18.210;2023-02-03T09:03:58;15.60;;;8.90;;
57297;SDS011;43147;50.972;18.210;2023-02-03T09:06:26;13.00;;;8.00;;
57297;SDS011;43147;50.972;18.210;2023-02-03T09:08:54;14.90;;;7.60;;
57297;SDS011;43147;50.972;18.210;2023-02-03T09:11:19;21.30;;;9.60;;
57297;SDS011;43147;50.972;18.210;2023-02-03T09:13:45;12.90;;;7.10;;
57297;SDS011;43147;50.972;18.210;2023-02-03T09:16:12;10.10;;;6.20;;
57297;SDS011;43147;50.972;18.210;2023-02-03T09:18:38;18.30;;;9.20;;
57297;SDS011;43147;50.972;18.210;2023-02-03T09:21:05;15.60;;;9.00;;
57297;SDS011;43147;50.972;18.210;2023-02-03T09:23:32;23.10;;;10.60;;
57297;SDS011;43147;50.972;18.210;2023-02-03T09:26:16;22.20;;;11.00;;
57297;SDS011;43147;50.972;18.210;2023-02-03T09:28:42;31.90;;;12.50;;
57297;SDS011;43147;50.972;18.210;2023-02-03T09:31:09;16.00;;;8.30;;
57297;SDS011;43147;50.972;18.210;2023-02-03T09:33:37;16.10;;;6.60;;
57297;SDS011;43147;50.972;18.210;2023-02-03T09:36:04;15.60;;;7.10;;
57297;SDS011;43147;50.972;18.210;2023-02-03T09:38:30;8.40;;;6.00;;
57297;SDS011;43147;50.972;18.210;2023-02-03T09:41:11;13.50;;;6.10;;
57297;SDS011;43147;50.972;18.210;2023-02-03T09:43:59;7.60;;;5.00;;
57297;SDS011;43147;50.972;18.210;2023-02-03T09:46:50;11.80;;;5.70;;
57297;SDS011;43147;50.972;18.210;2023-02-03T09:51:52;7.40;;;4.60;;
57297;SDS011;43147;50.972;18.210;2023-02-03T09:57:04;10.80;;;5.40;;
57297;SDS011;43147;50.972;18.210;2023-02-03T09:59:31;10.10;;;5.70;;
57297;SDS011;43147;50.972;18.210;2023-02-03T10:12:45;9.60;;;6.50;;
57297;SDS011;43147;50.972;18.210;2023-02-03T10:17:56;9.90;;;5.80;;
57297;SDS011;43147;50.972;18.210;2023-02-03T10:20:35;12.00;;;8.00;;
57297;SDS011;43147;50.972;18.210;2023-02-03T10:23:27;13.30;;;8.20;;
57297;SDS011;43147;50.972;18.210;2023-02-03T10:25:54;10.10;;;6.90;;
57297;SDS011;43147;50.972;18.210;2023-02-03T10:28:23;12.90;;;8.60;;
57297;SDS011;43147;50.972;18.210;2023-02-03T10:30:53;12.50;;;7.70;;
57297;SDS011;43147;50.972;18.210;2023-02-03T10:33:24;16.20;;;9.20;;
57297;SDS011;43147;50.972;18.210;2023-02-03T10:35:54;13.10;;;8.40;;
57297;SDS011;43147;50.972;18.210;2023-02-03T10:38:46;12.60;;;9.00;;
57297;SDS011;43147;50.972;18.210;2023-02-03T10:41:33;12.00;;;7.40;;
57297;SDS011;43147;50.972;18.210;2023-02-03T10:44:00;10.50;;;6.30;;
57297;SDS011;43147;50.972;18.210;2023-02-03T10:46:28;11.10;;;7.00;;
57297;SDS011;43147;50.972;18.210;2023-02-03T10:48:55;13.50;;;7.40;;
57297;SDS011;43147;50.972;18.210;2023-02-03T10:51:24;12.50;;;8.20;;
57297;SDS011;43147;50.972;18.210;2023-02-03T10:53:57;13.70;;;8.20;;
57297;SDS011;43147;50.972;18.210;2023-02-03T10:56:25;16.30;;;7.80;;
57297;SDS011;43147;50.972;18.210;2023-02-03T10:58:54;10.20;;;6.70;;
57297;SDS011;43147;50.972;18.210;2023-02-03T11:01:24;7.80;;;5.30;;
57297;SDS011;43147;50.972;18.210;2023-02-03T11:04:01;8.00;;;5.60;;
57297;SDS011;43147;50.972;18.210;2023-02-03T11:06:29;10.60;;;6.10;;
57297;SDS011;43147;50.972;18.210;2023-02-03T11:08:58;7.80;;;5.60;;
57297;SDS011;43147;50.972;18.210;2023-02-03T11:11:28;12.00;;;7.80;;
57297;SDS011;43147;50.972;18.210;2023-02-03T11:14:15;8.20;;;5.90;;
57297;SDS011;43147;50.972;18.210;2023-02-03T11:16:41;9.90;;;5.80;;
57297;SDS011;43147;50.972;18.210;2023-02-03T11:19:17;5.60;;;5.00;;
57297;SDS011;43147;50.972;18.210;2023-02-03T11:21:45;7.00;;;5.10;;
57297;SDS011;43147;50.972;18.210;2023-02-03T11:24:22;7.70;;;5.70;;
57297;SDS011;43147;50.972;18.210;2023-02-03T11:26:59;6.80;;;4.90;;
57297;SDS011;43147;50.972;18.210;2023-02-03T11:29:33;9.50;;;5.60;;
57297;SDS011;43147;50.972;18.210;2023-02-03T11:32:02;8.50;;;5.00;;
57297;SDS011;43147;50.972;18.210;2023-02-03T11:34:32;7.50;;;5.20;;
57297;SDS011;43147;50.972;18.210;2023-02-03T11:40:21;9.20;;;5.00;;
57297;SDS011;43147;50.972;18.210;2023-02-03T11:45:26;6.40;;;4.30;;
57297;SDS011;43147;50.972;18.210;2023-02-03T11:53:43;8.30;;;5.60;;
57297;SDS011;43147;50.972;18.210;2023-02-03T12:04:24;20.40;;;9.80;;
57297;SDS011;43147;50.972;18.210;2023-02-03T12:12:51;7.10;;;4.90;;
57297;SDS011;43147;50.972;18.210;2023-02-03T12:15:40;17.30;;;7.50;;
57297;SDS011;43147;50.972;18.210;2023-02-03T12:23:46;14.30;;;7.20;;
57297;SDS011;43147;50.972;18.210;2023-02-03T12:26:22;27.80;;;14.20;;
57297;SDS011;43147;50.972;18.210;2023-02-03T12:31:48;11.00;;;8.30;;
57297;SDS011;43147;50.972;18.210;2023-02-03T12:34:37;10.40;;;6.70;;
57297;SDS011;43147;50.972;18.210;2023-02-03T12:37:15;14.50;;;7.50;;
57297;SDS011;43147;50.972;18.210;2023-02-03T12:39:49;12.50;;;7.30;;
57297;SDS011;43147;50.972;18.210;2023-02-03T12:42:19;11.30;;;7.40;;
57297;SDS011;43147;50.972;18.210;2023-02-03T12:44:53;13.70;;;7.70;;
57297;SDS011;43147;50.972;18.210;2023-02-03T12:52:31;12.60;;;8.10;;
57297;SDS011;43147;50.972;18.210;2023-02-03T12:57:40;21.70;;;10.40;;
57297;SDS011;43147;50.972;18.210;2023-02-03T13:00:20;22.00;;;10.50;;
57297;SDS011;43147;50.972;18.210;2023-02-03T13:03:05;19.90;;;9.60;;
57297;SDS011;43147;50.972;18.210;2023-02-03T13:05:51;16.80;;;9.10;;
57297;SDS011;43147;50.972;18.210;2023-02-03T13:10:49;19.00;;;10.90;;
57297;SDS011;43147;50.972;18.210;2023-02-03T13:13:23;18.30;;;8.90;;
57297;SDS011;43147;50.972;18.210;2023-02-03T13:15:53;17.50;;;9.10;;
57297;SDS011;43147;50.972;18.210;2023-02-03T13:18:24;16.00;;;8.70;;
57297;SDS011;43147;50.972;18.210;2023-02-03T13:20:50;21.00;;;9.40;;
57297;SDS011;43147;50.972;18.210;2023-02-03T13:23:18;14.90;;;8.70;;
57297;SDS011;43147;50.972;18.210;2023-02-03T13:42:36;15.80;;;9.90;;
57297;SDS011;43147;50.972;18.210;2023-02-03T13:45:19;19.10;;;9.70;;
57297;SDS011;43147;50.972;18.210;2023-02-03T13:47:51;28.20;;;11.60;;
57297;SDS011;43147;50.972;18.210;2023-02-03T13:50:23;17.30;;;9.40;;
57297;SDS011;43147;50.972;18.210;2023-02-03T13:52:53;13.90;;;7.00;;
57297;SDS011;43147;50.972;18.210;2023-02-03T13:55:29;18.60;;;8.50;;
57297;SDS011;43147;50.972;18.210;2023-02-03T13:57:58;18.60;;;9.10;;
57297;SDS011;43147;50.972;18.210;2023-02-03T14:03:41;11.50;;;4.80;;
57297;SDS011;43147;50.972;18.210;2023-02-03T14:06:00;13.90;;;5.70;;
57297;SDS011;43147;50.972;18.210;2023-02-03T14:08:40;8.80;;;4.70;;
57297;SDS011;43147;50.972;18.210;2023-02-03T14:16:47;4.90;;;3.30;;
57297;SDS011;43147;50.972;18.210;2023-02-03T14:24:12;5.80;;;3.40;;
57297;SDS011;43147;50.972;18.210;2023-02-03T14:26:42;5.00;;;3.40;;
57297;SDS011;43147;50.972;18.210;2023-02-03T14:29:09;4.70;;;3.10;;
57297;SDS011;43147;50.972;18.210;2023-02-03T14:32:03;6.70;;;3.80;;
57297;SDS011;43147;50.972;18.210;2023-02-03T14:34:46;12.00;;;7.30;;
57297;SDS011;43147;50.972;18.210;2023-02-03T14:37:20;5.30;;;3.20;;
57297;SDS011;43147;50.972;18.210;2023-02-03T14:40:05;8.00;;;4.10;;
57297;SDS011;43147;50.972;18.210;2023-02-03T14:51:36;10.00;;;5.00;;
57297;SDS011;43147;50.972;18.210;2023-02-03T14:59:58;8.30;;;5.00;;
57297;SDS011;43147;50.972;18.210;2023-02-03T15:02:28;9.90;;;4.30;;
57297;SDS011;43147;50.972;18.210;2023-02-03T15:07:37;13.40;;;6.20;;
57297;SDS011;43147;50.972;18.210;2023-02-03T15:10:12;10.00;;;6.50;;
57297;SDS011;43147;50.972;18.210;2023-02-03T15:12:47;13.40;;;6.60;;
57297;SDS011;43147;50.972;18.210;2023-02-03T15:17:52;13.30;;;7.20;;
57297;SDS011;43147;50.972;18.210;2023-02-03T15:20:26;11.30;;;6.50;;
57297;SDS011;43147;50.972;18.210;2023-02-03T15:22:53;18.30;;;7.60;;
57297;SDS011;43147;50.972;18.210;2023-02-03T15:25:20;14.80;;;7.60;;
57297;SDS011;43147;50.972;18.210;2023-02-03T15:27:49;17.00;;;8.20;;
57297;SDS011;43147;50.972;18.210;2023-02-03T15:30:17;13.70;;;7.00;;
57297;SDS011;43147;50.972;18.210;2023-02-03T15:33:03;16.80;;;6.80;;
57297;SDS011;43147;50.972;18.210;2023-02-03T15:35:32;17.70;;;7.80;;
57297;SDS011;43147;50.972;18.210;2023-02-03T15:38:01;16.00;;;6.40;;
57297;SDS011;43147;50.972;18.210;2023-02-03T15:40:36;12.90;;;6.60;;
57297;SDS011;43147;50.972;18.210;2023-02-03T15:53:07;21.00;;;8.80;;
57297;SDS011;43147;50.972;18.210;2023-02-03T15:55:36;16.20;;;8.30;;
57297;SDS011;43147;50.972;18.210;2023-02-03T15:58:11;19.60;;;10.50;;
57297;SDS011;43147;50.972;18.210;2023-02-03T16:00:40;26.90;;;8.70;;
57297;SDS011;43147;50.972;18.210;2023-02-03T16:03:12;33.60;;;9.90;;
57297;SDS011;43147;50.972;18.210;2023-02-03T16:05:44;17.20;;;7.60;;
57297;SDS011;43147;50.972;18.210;2023-02-03T16:08:26;22.80;;;7.90;;
57297;SDS011;43147;50.972;18.210;2023-02-03T16:10:54;22.00;;;6.50;;
57297;SDS011;43147;50.972;18.210;2023-02-03T16:13:20;15.90;;;6.30;;
57297;SDS011;43147;50.972;18.210;2023-02-03T16:16:14;27.10;;;7.00;;
57297;SDS011;43147;50.972;18.210;2023-02-03T16:18:48;53.20;;;14.90;;
57297;SDS011;43147;50.972;18.210;2023-02-03T16:21:23;28.00;;;8.70;;
57297;SDS011;43147;50.972;18.210;2023-02-03T16:24:26;44.40;;;11.80;;
57297;SDS011;43147;50.972;18.210;2023-02-03T16:27:19;29.00;;;9.50;;
57297;SDS011;43147;50.972;18.210;2023-02-03T16:33:09;61.70;;;16.50;;
57297;SDS011;43147;50.972;18.210;2023-02-03T16:35:57;48.40;;;12.00;;
57297;SDS011;43147;50.972;18.210;2023-02-03T16:38:44;44.70;;;11.10;;
57297;SDS011;43147;50.972;18.210;2023-02-03T16:41:30;40.30;;;12.60;;
57297;SDS011;43147;50.972;18.210;2023-02-03T16:44:15;50.20;;;15.20;;
57297;SDS011;43147;50.972;18.210;2023-02-03T16:49:45;21.10;;;8.00;;
57297;SDS011;43147;50.972;18.210;2023-02-03T16:52:30;24.10;;;4.10;;
57297;SDS011;43147;50.972;18.210;2023-02-03T16:54:56;10.50;;;4.10;;
57297;SDS011;43147;50.972;18.210;2023-02-03T16:57:22;31.40;;;8.20;;
57297;SDS011;43147;50.972;18.210;2023-02-03T16:59:48;24.50;;;8.80;;
57297;SDS011;43147;50.972;18.210;2023-02-03T17:02:14;26.60;;;9.40;;
57297;SDS011;43147;50.972;18.210;2023-02-03T17:04:40;18.60;;;8.30;;
57297;SDS011;43147;50.972;18.210;2023-02-03T17:07:06;23.10;;;6.90;;
57297;SDS011;43147;50.972;18.210;2023-02-03T17:09:32;24.70;;;7.00;;